createdAt,value
2019-03-21T11:49:18.878Z,20.80
2019-03-21T11:54:24.645Z,20.70
2019-03-21T11:59:50.417Z,21.00
2019-03-21T12:05:21.982Z,20.80
2019-03-21T12:10:58.474Z,21.40
2019-03-21T12:16:10.101Z,21.80
2019-03-21T12:21:21.474Z,22.30
2019-03-21T12:26:59.183Z,22.40
2019-03-21T12:32:31.214Z,22.30
2019-03-21T12:37:52.915Z,22.20
2019-03-21T12:43:41.119Z,22.00
2019-03-21T12:48:50.244Z,21.90
2019-03-21T12:54:01.532Z,21.90
2019-03-21T12:59:10.763Z,21.60
2019-03-21T13:04:15.658Z,21.50
2019-03-21T13:09:20.906Z,21.90
2019-03-21T13:14:26.790Z,21.80
2019-03-21T13:19:50.855Z,22.30
2019-03-21T13:30:38.923Z,23.00
2019-03-21T13:35:44.376Z,22.70
2019-03-21T13:41:09.009Z,22.20
2019-03-21T13:46:25.002Z,22.00
2019-03-21T13:51:38.091Z,22.40
2019-03-21T13:56:57.213Z,22.20
2019-03-21T14:02:02.296Z,21.80
2019-03-21T14:07:10.179Z,21.40
2019-03-21T14:12:17.548Z,21.60
2019-03-21T14:17:22.632Z,21.50
2019-03-21T14:22:31.205Z,21.80
2019-03-21T14:27:50.218Z,21.90
2019-03-21T14:32:59.002Z,22.00
2019-03-21T14:38:05.033Z,21.80
2019-03-21T14:43:10.242Z,21.60
2019-03-21T14:48:15.247Z,21.40
2019-03-21T14:53:28.782Z,21.20
2019-03-21T14:58:32.762Z,21.10
2019-03-21T15:03:51.954Z,21.10
2019-03-21T15:09:00.794Z,21.10
2019-03-21T15:14:06.134Z,20.80
2019-03-21T15:19:15.698Z,20.80
2019-03-21T15:24:21.147Z,20.80
2019-03-21T15:29:29.536Z,21.00
2019-03-21T15:34:49.628Z,21.00
2019-03-21T15:40:24.087Z,20.70
2019-03-21T15:45:33.640Z,20.30
2019-03-21T15:50:43.916Z,20.50
2019-03-21T15:56:06.035Z,20.40
2019-03-21T16:01:11.265Z,20.60
2019-03-21T16:06:19.741Z,20.30
2019-03-21T16:11:36.545Z,20.00
2019-03-21T16:16:43.690Z,19.60
2019-03-21T16:22:05.790Z,19.10
2019-03-21T16:27:54.560Z,18.90
2019-03-21T16:33:04.457Z,18.80
2019-03-21T16:38:10.397Z,18.50
2019-03-21T16:43:15.662Z,18.10
2019-03-21T16:48:25.601Z,17.70
2019-03-21T16:53:43.800Z,17.50
2019-03-21T16:59:00.984Z,17.50
2019-03-21T17:04:14.897Z,17.30
2019-03-21T17:09:27.473Z,17.00
2019-03-21T17:14:46.649Z,16.80
2019-03-21T17:19:54.284Z,16.70
2019-03-21T17:24:59.929Z,16.50
2019-03-21T17:30:06.249Z,16.30
2019-03-21T17:35:12.028Z,16.00
2019-03-21T17:40:22.061Z,15.90
2019-03-21T17:45:28.441Z,15.50
